sensor_id;sensor_type;location;lat;lon;timestamp;temperature;humidity
14357;DHT22;7262;48.764;9.166;2023-01-25T00:00:50;2.90;99.90
14357;DHT22;7262;48.764;9.166;2023-01-25T00:03:17;2.90;99.90
14357;DHT22;7262;48.764;9.166;2023-01-25T00:05:45;3.00;99.90
14357;DHT22;7262;48.764;9.166;2023-01-25T00:08:12;3.00;99.90
14357;DHT22;7262;48.764;9.166;2023-01-25T00:10:39;3.10;99.90
14357;DHT22;7262;48.764;9.166;2023-01-25T00:13:05;3.00;99.90
14357;DHT22;7262;48.764;9.166;2023-01-25T00:15:32;3.00;99.90
14357;DHT22;7262;48.764;9.166;2023-01-25T00:17:59;3.00;99.90
14357;DHT22;7262;48.764;9.166;2023-01-25T00:20:25;3.00;99.90
14357;DHT22;7262;48.764;9.166;2023-01-25T00:22:54;3.00;99.90
14357;DHT22;7262;48.764;9.166;2023-01-25T00:25:20;3.00;99.90
14357;DHT22;7262;48.764;9.166;2023-01-25T00:27:47;3.00;99.90
14357;DHT22;7262;48.764;9.166;2023-01-25T00:30:14;3.00;99.90
14357;DHT22;7262;48.764;9.166;2023-01-25T00:32:52;3.00;99.90
14357;DHT22;7262;48.764;9.166;2023-01-25T00:35:19;3.00;99.90
14357;DHT22;7262;48.764;9.166;2023-01-25T00:37:47;3.00;99.90
14357;DHT22;7262;48.764;9.166;2023-01-25T00:40:16;3.00;99.90
14357;DHT22;7262;48.764;9.166;2023-01-25T00:42:43;3.00;99.90
14357;DHT22;7262;48.764;9.166;2023-01-25T00:45:10;3.10;99.90
14357;DHT22;7262;48.764;9.166;2023-01-25T00:47:37;3.10;99.90
14357;DHT22;7262;48.764;9.166;2023-01-25T00:50:05;3.10;99.90
14357;DHT22;7262;48.764;9.166;2023-01-25T00:52:32;3.10;99.90
14357;DHT22;7262;48.764;9.166;2023-01-25T00:54:59;3.10;99.90
14357;DHT22;7262;48.764;9.166;2023-01-25T00:57:27;3.10;99.90
14357;DHT22;7262;48.764;9.166;2023-01-25T00:59:54;3.10;99.90
14357;DHT22;7262;48.764;9.166;2023-01-25T01:02:21;3.00;99.90
14357;DHT22;7262;48.764;9.166;2023-01-25T01:04:48;3.00;99.90
14357;DHT22;7262;48.764;9.166;2023-01-25T01:07:14;3.00;99.90
14357;DHT22;7262;48.764;9.166;2023-01-25T01:09:41;3.00;99.90
14357;DHT22;7262;48.764;9.166;2023-01-25T01:12:08;3.00;99.90
14357;DHT22;7262;48.764;9.166;2023-01-25T01:14:37;3.10;99.90
14357;DHT22;7262;48.764;9.166;2023-01-25T01:17:03;3.10;99.90
14357;DHT22;7262;48.764;9.166;2023-01-25T01:19:30;3.10;99.90
14357;DHT22;7262;48.764;9.166;2023-01-25T01:21:57;3.00;99.90
14357;DHT22;7262;48.764;9.166;2023-01-25T01:24:24;3.00;99.90
14357;DHT22;7262;48.764;9.166;2023-01-25T01:26:51;3.00;99.90
14357;DHT22;7262;48.764;9.166;2023-01-25T01:29:18;3.00;99.90
14357;DHT22;7262;48.764;9.166;2023-01-25T01:31:46;3.10;99.90
14357;DHT22;7262;48.764;9.166;2023-01-25T01:34:15;3.10;99.90
14357;DHT22;7262;48.764;9.166;2023-01-25T01:36:42;3.10;99.90
14357;DHT22;7262;48.764;9.166;2023-01-25T01:39:09;3.10;99.90
14357;DHT22;7262;48.764;9.166;2023-01-25T01:41:36;3.10;99.90
14357;DHT22;7262;48.764;9.166;2023-01-25T01:44:03;3.10;99.90
14357;DHT22;7262;48.764;9.166;2023-01-25T01:46:31;3.10;99.90
14357;DHT22;7262;48.764;9.166;2023-01-25T01:49:01;3.10;99.90
14357;DHT22;7262;48.764;9.166;2023-01-25T01:51:36;3.10;99.90
14357;DHT22;7262;48.764;9.166;2023-01-25T01:54:07;3.10;99.90
14357;DHT22;7262;48.764;9.166;2023-01-25T01:56:42;3.00;99.90
14357;DHT22;7262;48.764;9.166;2023-01-25T01:59:11;3.10;99.90
14357;DHT22;7262;48.764;9.166;2023-01-25T02:01:38;3.10;99.90
14357;DHT22;7262;48.764;9.166;2023-01-25T02:04:06;3.00;99.90
14357;DHT22;7262;48.764;9.166;2023-01-25T02:06:35;3.00;99.90
14357;DHT22;7262;48.764;9.166;2023-01-25T02:09:04;3.00;99.90
14357;DHT22;7262;48.764;9.166;2023-01-25T02:11:31;3.00;99.90
14357;DHT22;7262;48.764;9.166;2023-01-25T02:13:59;3.00;99.90
14357;DHT22;7262;48.764;9.166;2023-01-25T02:16:27;2.90;99.90
14357;DHT22;7262;48.764;9.166;2023-01-25T02:18:55;2.90;99.90
14357;DHT22;7262;48.764;9.166;2023-01-25T02:21:24;3.00;99.90
14357;DHT22;7262;48.764;9.166;2023-01-25T02:23:52;3.00;99.90
14357;DHT22;7262;48.764;9.166;2023-01-25T02:26:21;3.00;99.90
14357;DHT22;7262;48.764;9.166;2023-01-25T02:28:49;3.00;99.90
14357;DHT22;7262;48.764;9.166;2023-01-25T02:31:17;3.10;99.90
14357;DHT22;7262;48.764;9.166;2023-01-25T02:33:44;3.10;99.90
14357;DHT22;7262;48.764;9.166;2023-01-25T02:36:15;3.10;99.90
14357;DHT22;7262;48.764;9.166;2023-01-25T02:38:44;3.10;99.90
14357;DHT22;7262;48.764;9.166;2023-01-25T02:41:12;3.10;99.90
14357;DHT22;7262;48.764;9.166;2023-01-25T02:43:42;3.00;99.90
14357;DHT22;7262;48.764;9.166;2023-01-25T02:46:10;3.00;99.90
14357;DHT22;7262;48.764;9.166;2023-01-25T02:48:38;3.00;99.90
14357;DHT22;7262;48.764;9.166;2023-01-25T02:51:05;3.00;99.90
14357;DHT22;7262;48.764;9.166;2023-01-25T02:53:32;3.00;99.90
14357;DHT22;7262;48.764;9.166;2023-01-25T02:55:59;3.00;99.90
14357;DHT22;7262;48.764;9.166;2023-01-25T02:58:26;3.00;99.90
14357;DHT22;7262;48.764;9.166;2023-01-25T03:00:54;3.00;99.90
14357;DHT22;7262;48.764;9.166;2023-01-25T03:03:21;3.00;99.90
14357;DHT22;7262;48.764;9.166;2023-01-25T03:05:48;3.00;99.90
14357;DHT22;7262;48.764;9.166;2023-01-25T03:08:15;3.00;99.90
14357;DHT22;7262;48.764;9.166;2023-01-25T03:10:42;3.00;99.90
14357;DHT22;7262;48.764;9.166;2023-01-25T03:13:09;3.00;99.90
14357;DHT22;7262;48.764;9.166;2023-01-25T03:15:36;3.10;99.90
14357;DHT22;7262;48.764;9.166;2023-01-25T03:18:04;3.10;99.90
14357;DHT22;7262;48.764;9.166;2023-01-25T03:20:31;3.10;99.90
14357;DHT22;7262;48.764;9.166;2023-01-25T03:22:58;3.10;99.90
14357;DHT22;7262;48.764;9.166;2023-01-25T03:25:25;3.10;99.90
14357;DHT22;7262;48.764;9.166;2023-01-25T03:27:52;3.10;99.90
14357;DHT22;7262;48.764;9.166;2023-01-25T03:30:20;3.10;99.90
14357;DHT22;7262;48.764;9.166;2023-01-25T03:32:47;3.00;99.90
14357;DHT22;7262;48.764;9.166;2023-01-25T03:35:16;3.00;99.90
14357;DHT22;7262;48.764;9.166;2023-01-25T03:37:43;3.00;99.90
14357;DHT22;7262;48.764;9.166;2023-01-25T03:40:10;3.00;99.90
14357;DHT22;7262;48.764;9.166;2023-01-25T03:42:37;3.00;99.90
14357;DHT22;7262;48.764;9.166;2023-01-25T03:45:04;3.00;99.90
14357;DHT22;7262;48.764;9.166;2023-01-25T03:47:31;3.00;99.90
14357;DHT22;7262;48.764;9.166;2023-01-25T03:49:58;3.10;99.90
14357;DHT22;7262;48.764;9.166;2023-01-25T03:52:26;3.10;99.90
14357;DHT22;7262;48.764;9.166;2023-01-25T03:54:55;3.00;99.90
14357;DHT22;7262;48.764;9.166;2023-01-25T03:57:23;3.00;99.90
14357;DHT22;7262;48.764;9.166;2023-01-25T03:59:50;3.00;99.90
14357;DHT22;7262;48.764;9.166;2023-01-25T04:02:17;3.00;99.90
14357;DHT22;7262;48.764;9.166;2023-01-25T04:04:44;2.90;99.90
14357;DHT22;7262;48.764;9.166;2023-01-25T04:07:10;2.90;99.90
14357;DHT22;7262;48.764;9.166;2023-01-25T04:09:39;2.90;99.90
14357;DHT22;7262;48.764;9.166;2023-01-25T04:12:06;2.90;99.90
14357;DHT22;7262;48.764;9.166;2023-01-25T04:14:32;2.90;99.90
14357;DHT22;7262;48.764;9.166;2023-01-25T04:16:59;2.90;99.90
14357;DHT22;7262;48.764;9.166;2023-01-25T04:19:29;2.90;99.90
14357;DHT22;7262;48.764;9.166;2023-01-25T04:21:56;3.00;99.90
14357;DHT22;7262;48.764;9.166;2023-01-25T04:24:23;2.90;99.90
14357;DHT22;7262;48.764;9.166;2023-01-25T04:26:51;3.00;99.90
14357;DHT22;7262;48.764;9.166;2023-01-25T04:29:18;3.00;99.90
14357;DHT22;7262;48.764;9.166;2023-01-25T04:31:44;2.90;99.90
14357;DHT22;7262;48.764;9.166;2023-01-25T04:34:11;2.90;99.90
14357;DHT22;7262;48.764;9.166;2023-01-25T04:36:38;2.90;99.90
14357;DHT22;7262;48.764;9.166;2023-01-25T04:39:05;2.90;99.90
14357;DHT22;7262;48.764;9.166;2023-01-25T04:41:32;2.90;99.90
14357;DHT22;7262;48.764;9.166;2023-01-25T04:44:00;2.80;99.90
14357;DHT22;7262;48.764;9.166;2023-01-25T04:46:27;2.90;99.90
14357;DHT22;7262;48.764;9.166;2023-01-25T04:48:53;2.90;99.90
14357;DHT22;7262;48.764;9.166;2023-01-25T04:51:20;2.90;99.90
14357;DHT22;7262;48.764;9.166;2023-01-25T04:53:47;2.90;99.90
14357;DHT22;7262;48.764;9.166;2023-01-25T04:56:14;2.90;99.90
14357;DHT22;7262;48.764;9.166;2023-01-25T04:58:40;2.90;99.90
14357;DHT22;7262;48.764;9.166;2023-01-25T05:01:09;2.90;99.90
14357;DHT22;7262;48.764;9.166;2023-01-25T05:03:36;3.00;99.90
14357;DHT22;7262;48.764;9.166;2023-01-25T05:06:03;2.90;99.90
14357;DHT22;7262;48.764;9.166;2023-01-25T05:08:30;3.00;99.90
14357;DHT22;7262;48.764;9.166;2023-01-25T05:10:59;3.00;99.90
14357;DHT22;7262;48.764;9.166;2023-01-25T05:13:26;3.10;99.90
14357;DHT22;7262;48.764;9.166;2023-01-25T05:15:54;3.00;99.90
14357;DHT22;7262;48.764;9.166;2023-01-25T05:18:22;3.00;99.90
14357;DHT22;7262;48.764;9.166;2023-01-25T05:20:52;3.00;99.90
14357;DHT22;7262;48.764;9.166;2023-01-25T05:23:21;3.00;99.90
14357;DHT22;7262;48.764;9.166;2023-01-25T05:25:48;3.10;99.90
14357;DHT22;7262;48.764;9.166;2023-01-25T05:28:32;2.90;99.90
14357;DHT22;7262;48.764;9.166;2023-01-25T05:31:02;3.00;99.90
14357;DHT22;7262;48.764;9.166;2023-01-25T05:33:30;3.00;99.90
14357;DHT22;7262;48.764;9.166;2023-01-25T05:35:57;3.00;99.90
14357;DHT22;7262;48.764;9.166;2023-01-25T05:38:24;3.10;99.90
14357;DHT22;7262;48.764;9.166;2023-01-25T05:40:50;3.00;99.90
14357;DHT22;7262;48.764;9.166;2023-01-25T05:43:17;3.10;99.90
14357;DHT22;7262;48.764;9.166;2023-01-25T05:45:50;3.00;99.90
14357;DHT22;7262;48.764;9.166;2023-01-25T05:48:17;3.10;99.90
14357;DHT22;7262;48.764;9.166;2023-01-25T05:50:45;3.20;99.90
14357;DHT22;7262;48.764;9.166;2023-01-25T05:53:11;3.10;99.90
14357;DHT22;7262;48.764;9.166;2023-01-25T05:55:38;3.10;99.90
14357;DHT22;7262;48.764;9.166;2023-01-25T05:58:05;3.10;99.90
14357;DHT22;7262;48.764;9.166;2023-01-25T06:00:32;3.00;99.90
14357;DHT22;7262;48.764;9.166;2023-01-25T06:02:59;3.00;99.90
14357;DHT22;7262;48.764;9.166;2023-01-25T06:05:26;3.10;99.90
14357;DHT22;7262;48.764;9.166;2023-01-25T06:07:54;3.10;99.90
14357;DHT22;7262;48.764;9.166;2023-01-25T06:10:21;3.10;99.90
14357;DHT22;7262;48.764;9.166;2023-01-25T06:12:48;3.10;99.90
14357;DHT22;7262;48.764;9.166;2023-01-25T06:15:14;3.20;99.90
14357;DHT22;7262;48.764;9.166;2023-01-25T06:17:41;3.00;99.90
14357;DHT22;7262;48.764;9.166;2023-01-25T06:20:09;3.10;99.90
14357;DHT22;7262;48.764;9.166;2023-01-25T06:22:36;3.00;99.90
14357;DHT22;7262;48.764;9.166;2023-01-25T06:25:04;3.00;99.90
14357;DHT22;7262;48.764;9.166;2023-01-25T06:27:31;2.90;99.90
14357;DHT22;7262;48.764;9.166;2023-01-25T06:29:58;3.00;99.90
14357;DHT22;7262;48.764;9.166;2023-01-25T06:32:30;3.00;99.90
14357;DHT22;7262;48.764;9.166;2023-01-25T06:35:00;3.00;99.90
14357;DHT22;7262;48.764;9.166;2023-01-25T06:37:27;3.00;99.90
14357;DHT22;7262;48.764;9.166;2023-01-25T06:39:54;2.90;99.90
14357;DHT22;7262;48.764;9.166;2023-01-25T06:42:23;2.90;99.90
14357;DHT22;7262;48.764;9.166;2023-01-25T06:44:50;3.00;99.90
14357;DHT22;7262;48.764;9.166;2023-01-25T06:47:21;3.10;99.90
14357;DHT22;7262;48.764;9.166;2023-01-25T06:49:47;2.90;99.90
14357;DHT22;7262;48.764;9.166;2023-01-25T06:52:14;2.90;99.90
14357;DHT22;7262;48.764;9.166;2023-01-25T06:54:41;3.00;99.90
14357;DHT22;7262;48.764;9.166;2023-01-25T06:57:08;3.00;99.90
14357;DHT22;7262;48.764;9.166;2023-01-25T06:59:37;3.00;99.90
14357;DHT22;7262;48.764;9.166;2023-01-25T07:02:08;3.00;99.90
14357;DHT22;7262;48.764;9.166;2023-01-25T07:04:36;3.10;99.90
14357;DHT22;7262;48.764;9.166;2023-01-25T07:07:02;3.00;99.90
14357;DHT22;7262;48.764;9.166;2023-01-25T07:09:29;3.00;99.90
14357;DHT22;7262;48.764;9.166;2023-01-25T07:11:56;2.90;99.90
14357;DHT22;7262;48.764;9.166;2023-01-25T07:14:23;3.10;99.90
14357;DHT22;7262;48.764;9.166;2023-01-25T07:16:51;3.10;99.90
14357;DHT22;7262;48.764;9.166;2023-01-25T07:19:20;3.10;99.90
14357;DHT22;7262;48.764;9.166;2023-01-25T07:21:48;3.00;99.90
14357;DHT22;7262;48.764;9.166;2023-01-25T07:24:15;3.00;99.90
14357;DHT22;7262;48.764;9.166;2023-01-25T07:26:42;3.00;99.90
14357;DHT22;7262;48.764;9.166;2023-01-25T07:29:10;3.20;99.90
14357;DHT22;7262;48.764;9.166;2023-01-25T07:31:38;3.00;99.90
14357;DHT22;7262;48.764;9.166;2023-01-25T07:34:07;3.10;99.90
14357;DHT22;7262;48.764;9.166;2023-01-25T07:36:34;3.10;99.90
14357;DHT22;7262;48.764;9.166;2023-01-25T07:39:01;3.10;99.90
14357;DHT22;7262;48.764;9.166;2023-01-25T07:41:28;3.10;99.90
14357;DHT22;7262;48.764;9.166;2023-01-25T07:43:56;3.10;99.90
14357;DHT22;7262;48.764;9.166;2023-01-25T07:46:23;3.30;99.90
14357;DHT22;7262;48.764;9.166;2023-01-25T07:48:50;3.30;99.90
14357;DHT22;7262;48.764;9.166;2023-01-25T07:51:20;3.20;99.90
14357;DHT22;7262;48.764;9.166;2023-01-25T07:53:51;3.20;99.90
14357;DHT22;7262;48.764;9.166;2023-01-25T07:56:19;3.20;99.90
14357;DHT22;7262;48.764;9.166;2023-01-25T07:58:46;3.20;99.90
14357;DHT22;7262;48.764;9.166;2023-01-25T08:01:14;3.30;99.90
14357;DHT22;7262;48.764;9.166;2023-01-25T08:03:41;3.20;99.90
14357;DHT22;7262;48.764;9.166;2023-01-25T08:06:09;3.10;99.90
14357;DHT22;7262;48.764;9.166;2023-01-25T08:08:41;3.20;99.90
14357;DHT22;7262;48.764;9.166;2023-01-25T08:11:09;3.20;99.90
14357;DHT22;7262;48.764;9.166;2023-01-25T08:13:38;3.30;99.90
14357;DHT22;7262;48.764;9.166;2023-01-25T08:16:05;3.30;99.90
14357;DHT22;7262;48.764;9.166;2023-01-25T08:18:32;3.30;99.90
14357;DHT22;7262;48.764;9.166;2023-01-25T08:20:59;3.40;99.90
14357;DHT22;7262;48.764;9.166;2023-01-25T08:23:26;3.30;99.90
14357;DHT22;7262;48.764;9.166;2023-01-25T08:25:55;3.30;99.90
14357;DHT22;7262;48.764;9.166;2023-01-25T08:28:22;3.40;99.90
14357;DHT22;7262;48.764;9.166;2023-01-25T08:30:49;3.40;99.90
14357;DHT22;7262;48.764;9.166;2023-01-25T08:33:15;3.40;99.90
14357;DHT22;7262;48.764;9.166;2023-01-25T08:35:42;3.50;99.90
14357;DHT22;7262;48.764;9.166;2023-01-25T08:38:19;3.60;99.90
14357;DHT22;7262;48.764;9.166;2023-01-25T08:40:46;3.30;99.90
14357;DHT22;7262;48.764;9.166;2023-01-25T08:43:14;3.50;99.90
14357;DHT22;7262;48.764;9.166;2023-01-25T08:45:41;3.40;99.90
14357;DHT22;7262;48.764;9.166;2023-01-25T08:48:08;3.40;99.90
14357;DHT22;7262;48.764;9.166;2023-01-25T08:50:37;3.40;99.90
14357;DHT22;7262;48.764;9.166;2023-01-25T08:53:06;3.40;99.90
14357;DHT22;7262;48.764;9.166;2023-01-25T08:55:37;3.50;99.90
14357;DHT22;7262;48.764;9.166;2023-01-25T08:58:04;3.40;99.90
14357;DHT22;7262;48.764;9.166;2023-01-25T09:00:36;3.60;99.90
14357;DHT22;7262;48.764;9.166;2023-01-25T09:03:03;3.60;99.90
14357;DHT22;7262;48.764;9.166;2023-01-25T09:05:32;3.60;99.90
14357;DHT22;7262;48.764;9.166;2023-01-25T09:07:59;3.60;99.90
14357;DHT22;7262;48.764;9.166;2023-01-25T09:10:28;3.50;99.90
14357;DHT22;7262;48.764;9.166;2023-01-25T09:12:55;3.40;99.90
14357;DHT22;7262;48.764;9.166;2023-01-25T09:15:22;3.50;99.90
14357;DHT22;7262;48.764;9.166;2023-01-25T09:17:51;3.50;99.90
14357;DHT22;7262;48.764;9.166;2023-01-25T09:20:19;3.50;99.90
14357;DHT22;7262;48.764;9.166;2023-01-25T09:22:52;3.40;99.90
14357;DHT22;7262;48.764;9.166;2023-01-25T09:25:24;3.50;99.90
14357;DHT22;7262;48.764;9.166;2023-01-25T09:27:51;3.50;99.90
14357;DHT22;7262;48.764;9.166;2023-01-25T09:30:18;3.50;99.90
14357;DHT22;7262;48.764;9.166;2023-01-25T09:32:47;3.40;99.90
14357;DHT22;7262;48.764;9.166;2023-01-25T09:35:15;3.40;99.90
14357;DHT22;7262;48.764;9.166;2023-01-25T09:37:42;3.30;99.90
14357;DHT22;7262;48.764;9.166;2023-01-25T09:40:11;3.30;99.90
14357;DHT22;7262;48.764;9.166;2023-01-25T09:42:46;3.50;99.90
14357;DHT22;7262;48.764;9.166;2023-01-25T09:45:20;3.50;99.90
14357;DHT22;7262;48.764;9.166;2023-01-25T09:47:50;3.40;99.90
14357;DHT22;7262;48.764;9.166;2023-01-25T09:50:32;3.30;99.90
14357;DHT22;7262;48.764;9.166;2023-01-25T09:53:05;3.30;99.90
14357;DHT22;7262;48.764;9.166;2023-01-25T09:55:35;3.30;99.90
14357;DHT22;7262;48.764;9.166;2023-01-25T09:58:02;3.30;99.90
14357;DHT22;7262;48.764;9.166;2023-01-25T10:00:32;3.30;99.90
14357;DHT22;7262;48.764;9.166;2023-01-25T10:03:00;3.30;99.90
14357;DHT22;7262;48.764;9.166;2023-01-25T10:05:29;3.40;99.90
14357;DHT22;7262;48.764;9.166;2023-01-25T10:07:59;3.40;99.90
14357;DHT22;7262;48.764;9.166;2023-01-25T10:10:29;3.50;99.90
14357;DHT22;7262;48.764;9.166;2023-01-25T10:12:58;3.50;99.90
14357;DHT22;7262;48.764;9.166;2023-01-25T10:15:34;3.60;99.90
14357;DHT22;7262;48.764;9.166;2023-01-25T10:18:09;3.60;99.90
14357;DHT22;7262;48.764;9.166;2023-01-25T10:20:42;3.50;99.90
14357;DHT22;7262;48.764;9.166;2023-01-25T10:23:24;3.60;99.90
14357;DHT22;7262;48.764;9.166;2023-01-25T10:25:56;3.50;99.90
14357;DHT22;7262;48.764;9.166;2023-01-25T10:28:29;3.40;99.90
14357;DHT22;7262;48.764;9.166;2023-01-25T10:30:59;3.40;99.90
14357;DHT22;7262;48.764;9.166;2023-01-25T10:33:33;3.50;99.90
14357;DHT22;7262;48.764;9.166;2023-01-25T10:36:02;3.50;99.90
14357;DHT22;7262;48.764;9.166;2023-01-25T10:38:40;3.60;99.90
14357;DHT22;7262;48.764;9.166;2023-01-25T10:41:09;3.50;99.90
14357;DHT22;7262;48.764;9.166;2023-01-25T10:43:37;3.50;99.90
14357;DHT22;7262;48.764;9.166;2023-01-25T10:46:05;3.50;99.90
14357;DHT22;7262;48.764;9.166;2023-01-25T10:48:37;3.60;99.90
14357;DHT22;7262;48.764;9.166;2023-01-25T10:51:04;3.50;99.90
14357;DHT22;7262;48.764;9.166;2023-01-25T10:53:32;3.50;99.90
14357;DHT22;7262;48.764;9.166;2023-01-25T10:56:02;3.50;99.90
14357;DHT22;7262;48.764;9.166;2023-01-25T10:58:31;3.60;99.90
14357;DHT22;7262;48.764;9.166;2023-01-25T11:00:58;3.60;99.90
14357;DHT22;7262;48.764;9.166;2023-01-25T11:03:31;3.50;99.90
14357;DHT22;7262;48.764;9.166;2023-01-25T11:05:59;3.60;99.90
14357;DHT22;7262;48.764;9.166;2023-01-25T11:08:31;3.50;99.90
14357;DHT22;7262;48.764;9.166;2023-01-25T11:10:58;3.60;99.90
14357;DHT22;7262;48.764;9.166;2023-01-25T11:13:31;3.40;99.90
14357;DHT22;7262;48.764;9.166;2023-01-25T11:16:09;3.50;99.90
14357;DHT22;7262;48.764;9.166;2023-01-25T11:18:47;3.40;99.90
14357;DHT22;7262;48.764;9.166;2023-01-25T11:21:15;3.60;99.90
14357;DHT22;7262;48.764;9.166;2023-01-25T11:23:48;3.40;99.90
14357;DHT22;7262;48.764;9.166;2023-01-25T11:26:24;3.40;99.90
14357;DHT22;7262;48.764;9.166;2023-01-25T11:29:04;3.50;99.90
14357;DHT22;7262;48.764;9.166;2023-01-25T11:31:33;3.40;99.90
14357;DHT22;7262;48.764;9.166;2023-01-25T11:34:01;3.50;99.90
14357;DHT22;7262;48.764;9.166;2023-01-25T11:36:29;3.50;99.90
14357;DHT22;7262;48.764;9.166;2023-01-25T11:39:08;3.50;99.90
14357;DHT22;7262;48.764;9.166;2023-01-25T11:41:37;3.40;99.90
14357;DHT22;7262;48.764;9.166;2023-01-25T11:44:16;3.50;99.90
14357;DHT22;7262;48.764;9.166;2023-01-25T11:46:49;3.50;99.90
14357;DHT22;7262;48.764;9.166;2023-01-25T11:49:29;3.30;99.90
14357;DHT22;7262;48.764;9.166;2023-01-25T11:52:03;3.30;99.90
14357;DHT22;7262;48.764;9.166;2023-01-25T11:54:44;3.40;99.90
14357;DHT22;7262;48.764;9.166;2023-01-25T12:00:03;3.30;99.90
14357;DHT22;7262;48.764;9.166;2023-01-25T12:02:55;3.20;99.90
14357;DHT22;7262;48.764;9.166;2023-01-25T12:05:27;3.30;99.90
14357;DHT22;7262;48.764;9.166;2023-01-25T12:08:00;3.20;99.90
14357;DHT22;7262;48.764;9.166;2023-01-25T12:10:32;3.20;99.90
14357;DHT22;7262;48.764;9.166;2023-01-25T12:13:01;3.40;99.90
14357;DHT22;7262;48.764;9.166;2023-01-25T12:15:37;3.30;99.90
14357;DHT22;7262;48.764;9.166;2023-01-25T12:18:15;3.30;99.90
14357;DHT22;7262;48.764;9.166;2023-01-25T12:20:59;3.30;99.90
14357;DHT22;7262;48.764;9.166;2023-01-25T12:23:31;3.30;99.90
14357;DHT22;7262;48.764;9.166;2023-01-25T12:26:05;3.40;99.90
14357;DHT22;7262;48.764;9.166;2023-01-25T12:28:38;3.20;99.90
14357;DHT22;7262;48.764;9.166;2023-01-25T12:31:08;3.30;99.90
14357;DHT22;7262;48.764;9.166;2023-01-25T12:33:39;3.30;99.90
14357;DHT22;7262;48.764;9.166;2023-01-25T12:36:10;3.20;99.90
14357;DHT22;7262;48.764;9.166;2023-01-25T12:38:38;3.20;99.90
14357;DHT22;7262;48.764;9.166;2023-01-25T12:41:07;3.30;99.90
14357;DHT22;7262;48.764;9.166;2023-01-25T12:43:39;3.30;99.90
14357;DHT22;7262;48.764;9.166;2023-01-25T12:46:13;3.30;99.90
14357;DHT22;7262;48.764;9.166;2023-01-25T12:48:40;3.40;99.90
14357;DHT22;7262;48.764;9.166;2023-01-25T12:51:09;3.40;99.90
14357;DHT22;7262;48.764;9.166;2023-01-25T12:53:36;3.20;99.90
14357;DHT22;7262;48.764;9.166;2023-01-25T12:56:05;3.10;99.90
14357;DHT22;7262;48.764;9.166;2023-01-25T12:58:34;3.30;99.90
14357;DHT22;7262;48.764;9.166;2023-01-25T13:01:08;3.30;99.90
14357;DHT22;7262;48.764;9.166;2023-01-25T13:03:42;3.20;99.90
14357;DHT22;7262;48.764;9.166;2023-01-25T13:06:14;3.20;99.90
14357;DHT22;7262;48.764;9.166;2023-01-25T13:08:47;3.20;99.90
14357;DHT22;7262;48.764;9.166;2023-01-25T13:11:17;3.30;99.90
14357;DHT22;7262;48.764;9.166;2023-01-25T13:13:46;3.20;99.90
14357;DHT22;7262;48.764;9.166;2023-01-25T13:16:23;3.30;99.90
14357;DHT22;7262;48.764;9.166;2023-01-25T13:18:52;3.30;99.90
14357;DHT22;7262;48.764;9.166;2023-01-25T13:24:12;3.30;99.90
14357;DHT22;7262;48.764;9.166;2023-01-25T13:26:46;3.40;99.90
14357;DHT22;7262;48.764;9.166;2023-01-25T13:35:23;3.30;99.90
14357;DHT22;7262;48.764;9.166;2023-01-25T13:37:56;3.20;99.90
14357;DHT22;7262;48.764;9.166;2023-01-25T13:40:27;3.20;99.90
14357;DHT22;7262;48.764;9.166;2023-01-25T13:42:59;3.30;99.90
14357;DHT22;7262;48.764;9.166;2023-01-25T13:45:28;3.20;99.90
14357;DHT22;7262;48.764;9.166;2023-01-25T13:47:59;3.10;99.90
14357;DHT22;7262;48.764;9.166;2023-01-25T13:50:31;3.00;99.90
14357;DHT22;7262;48.764;9.166;2023-01-25T13:53:00;3.00;99.90
14357;DHT22;7262;48.764;9.166;2023-01-25T13:55:27;3.10;99.90
14357;DHT22;7262;48.764;9.166;2023-01-25T13:58:07;3.10;99.90
14357;DHT22;7262;48.764;9.166;2023-01-25T14:00:34;3.10;99.90
14357;DHT22;7262;48.764;9.166;2023-01-25T14:03:03;3.00;99.90
14357;DHT22;7262;48.764;9.166;2023-01-25T14:05:32;3.10;99.90
14357;DHT22;7262;48.764;9.166;2023-01-25T14:07:59;3.20;99.90
14357;DHT22;7262;48.764;9.166;2023-01-25T14:10:26;3.20;99.90
14357;DHT22;7262;48.764;9.166;2023-01-25T14:12:53;3.10;99.90
14357;DHT22;7262;48.764;9.166;2023-01-25T14:15:24;3.20;99.90
14357;DHT22;7262;48.764;9.166;2023-01-25T14:18:11;3.10;99.90
14357;DHT22;7262;48.764;9.166;2023-01-25T14:20:41;3.00;99.90
14357;DHT22;7262;48.764;9.166;2023-01-25T14:23:21;3.10;99.90
14357;DHT22;7262;48.764;9.166;2023-01-25T14:25:48;3.00;99.90
14357;DHT22;7262;48.764;9.166;2023-01-25T14:28:15;2.80;99.90
14357;DHT22;7262;48.764;9.166;2023-01-25T14:30:42;2.90;99.90
14357;DHT22;7262;48.764;9.166;2023-01-25T14:33:16;2.80;99.90
14357;DHT22;7262;48.764;9.166;2023-01-25T14:35:46;2.80;99.90
14357;DHT22;7262;48.764;9.166;2023-01-25T14:38:23;2.70;99.90
14357;DHT22;7262;48.764;9.166;2023-01-25T14:40:52;2.70;99.90
14357;DHT22;7262;48.764;9.166;2023-01-25T14:43:19;2.70;99.90
14357;DHT22;7262;48.764;9.166;2023-01-25T14:45:46;2.70;99.90
14357;DHT22;7262;48.764;9.166;2023-01-25T14:48:32;2.90;99.90
14357;DHT22;7262;48.764;9.166;2023-01-25T14:51:03;2.80;99.90
14357;DHT22;7262;48.764;9.166;2023-01-25T14:53:30;2.80;99.90
14357;DHT22;7262;48.764;9.166;2023-01-25T14:55:57;2.70;99.90
14357;DHT22;7262;48.764;9.166;2023-01-25T14:58:25;2.70;99.90
14357;DHT22;7262;48.764;9.166;2023-01-25T15:00:53;2.70;99.90
14357;DHT22;7262;48.764;9.166;2023-01-25T15:03:21;2.70;99.90
14357;DHT22;7262;48.764;9.166;2023-01-25T15:05:55;2.80;99.90
14357;DHT22;7262;48.764;9.166;2023-01-25T15:08:28;2.60;99.90
14357;DHT22;7262;48.764;9.166;2023-01-25T15:10:55;2.80;99.90
14357;DHT22;7262;48.764;9.166;2023-01-25T15:13:23;2.80;99.90
14357;DHT22;7262;48.764;9.166;2023-01-25T15:15:52;2.90;99.90
14357;DHT22;7262;48.764;9.166;2023-01-25T15:21:06;2.80;99.90
14357;DHT22;7262;48.764;9.166;2023-01-25T15:23:34;2.80;99.90
14357;DHT22;7262;48.764;9.166;2023-01-25T15:26:01;2.70;99.90
14357;DHT22;7262;48.764;9.166;2023-01-25T15:28:37;2.60;99.90
14357;DHT22;7262;48.764;9.166;2023-01-25T15:31:03;2.70;99.90
14357;DHT22;7262;48.764;9.166;2023-01-25T15:33:31;2.50;99.90
14357;DHT22;7262;48.764;9.166;2023-01-25T15:35:58;2.60;99.90
14357;DHT22;7262;48.764;9.166;2023-01-25T15:38:25;2.60;99.90
14357;DHT22;7262;48.764;9.166;2023-01-25T15:40:53;2.70;99.90
14357;DHT22;7262;48.764;9.166;2023-01-25T15:43:24;2.60;99.90
14357;DHT22;7262;48.764;9.166;2023-01-25T15:45:51;2.50;99.90
14357;DHT22;7262;48.764;9.166;2023-01-25T15:48:22;2.60;99.90
14357;DHT22;7262;48.764;9.166;2023-01-25T15:50:52;2.60;99.90
14357;DHT22;7262;48.764;9.166;2023-01-25T15:53:21;2.60;99.90
14357;DHT22;7262;48.764;9.166;2023-01-25T15:55:49;2.70;99.90
14357;DHT22;7262;48.764;9.166;2023-01-25T15:58:21;2.70;99.90
14357;DHT22;7262;48.764;9.166;2023-01-25T16:00:49;2.60;99.90
14357;DHT22;7262;48.764;9.166;2023-01-25T16:03:15;2.60;99.90
14357;DHT22;7262;48.764;9.166;2023-01-25T16:05:42;2.60;99.90
14357;DHT22;7262;48.764;9.166;2023-01-25T16:08:10;2.60;99.90
14357;DHT22;7262;48.764;9.166;2023-01-25T16:10:38;2.60;99.90
14357;DHT22;7262;48.764;9.166;2023-01-25T16:13:05;2.60;99.90
14357;DHT22;7262;48.764;9.166;2023-01-25T16:15:34;2.60;99.90
14357;DHT22;7262;48.764;9.166;2023-01-25T16:18:01;2.50;99.90
14357;DHT22;7262;48.764;9.166;2023-01-25T16:20:28;2.60;99.90
14357;DHT22;7262;48.764;9.166;2023-01-25T16:22:55;2.60;99.90
14357;DHT22;7262;48.764;9.166;2023-01-25T16:25:22;2.60;99.90
14357;DHT22;7262;48.764;9.166;2023-01-25T16:27:49;2.50;99.90